Time;durP1;ratioP1;P1;durP2;ratioP2;P2;SDS_P1;SDS_P2;PMS_P1;PMS_P2;Temp;Humidity;BMP_temperature;BMP_pressure;BME280_temperature;BME280_humidity;BME280_pressure;Samples;Min_cycle;Max_cycle;Signal;HPM_P1;HPM_P2
2021/09/14 00:00:16;;;;;;;12.73;8.13;;;;;;;15.19;80.10;99451.91;1715463;82;21062;-68
2021/09/14 00:02:42;;;;;;;12.88;8.90;;;;;;;15.15;80.20;99450.34;1738286;82;21032;-68
2021/09/14 00:05:09;;;;;;;11.40;8.50;;;;;;;15.08;80.35;99454.07;1738450;82;21038;-69
2021/09/14 00:07:37;;;;;;;15.30;8.68;;;;;;;15.06;80.42;99450.80;1715532;82;21063;-69
2021/09/14 00:10:05;;;;;;;;;;;;;;;15.08;80.40;99444.47;1720128;82;20999;-69
2021/09/14 00:12:32;;;;;;;11.60;8.23;;;;;;;15.08;80.58;99455.44;1717240;82;20121;-68
2021/09/14 00:14:59;;;;;;;11.33;8.05;;;;;;;15.01;80.79;99442.71;1722670;82;20984;-69
2021/09/14 00:17:25;;;;;;;;;;;;;;;15.01;80.82;99450.12;1728516;82;21098;-69
2021/09/14 00:19:51;;;;;;;11.73;8.18;;;;;;;14.95;80.92;99454.88;1745211;81;20460;-69
2021/09/14 00:22:19;;;;;;;10.88;8.38;;;;;;;14.87;81.27;99449.59;1726269;82;21538;-69
2021/09/14 00:24:46;;;;;;;11.60;7.87;;;;;;;14.87;81.29;99458.37;1739369;82;21079;-69
2021/09/14 00:27:12;;;;;;;;;;;;;;;14.88;81.25;99453.12;1727549;82;21554;-69
2021/09/14 00:29:38;;;;;;;11.95;8.48;;;;;;;14.87;81.18;99448.78;1737453;81;20138;-69
2021/09/14 00:32:05;;;;;;;11.45;7.97;;;;;;;14.81;81.27;99448.05;1746036;81;21059;-69
2021/09/14 00:34:32;;;;;;;11.05;7.80;;;;;;;14.79;81.17;99453.05;1735430;82;21042;-69
2021/09/14 00:36:58;;;;;;;;;;;;;;;14.81;81.09;99452.72;1726711;82;21023;-69
2021/09/14 00:39:25;;;;;;;11.05;8.25;;;;;;;14.79;80.94;99450.86;1729543;82;20149;-69
2021/09/14 00:41:52;;;;;;;13.30;9.20;;;;;;;14.66;81.25;99450.32;1726596;82;21518;-69
2021/09/14 00:44:19;;;;;;;11.75;8.20;;;;;;;14.62;81.29;99443.27;1732762;82;21047;-67
2021/09/14 00:46:48;;;;;;;11.78;8.60;;;;;;;14.63;81.20;99446.23;1745281;82;21671;-67
2021/09/14 00:49:15;;;;;;;11.22;8.30;;;;;;;14.63;81.13;99444.87;1745466;82;21525;-67
2021/09/14 00:51:42;;;;;;;11.85;9.00;;;;;;;14.63;81.09;99442.72;1733148;82;21094;-68
2021/09/14 00:54:16;;;;;;;13.80;9.00;;;;;;;14.63;81.08;99450.34;1739930;82;21055;-68
2021/09/14 00:56:43;;;;;;;12.10;9.03;;;;;;;14.53;81.23;99439.61;1732989;82;21090;-68
2021/09/14 00:59:09;;;;;;;;;;;;;;;14.51;81.25;99438.30;1737203;82;20980;-68
2021/09/14 01:01:35;;;;;;;11.73;8.33;;;;;;;14.50;81.19;99447.06;1738410;82;20099;-68
2021/09/14 01:04:03;;;;;;;10.15;8.68;;;;;;;14.43;81.29;99443.92;1738396;82;20968;-68
2021/09/14 01:06:30;;;;;;;13.05;9.00;;;;;;;14.41;81.31;99446.16;1726985;82;21565;-68
2021/09/14 01:09:00;;;;;;;12.40;10.10;;;;;;;14.39;81.38;99449.19;1720233;82;21538;-68
2021/09/14 01:11:28;;;;;;;12.47;8.75;;;;;;;14.37;81.52;99454.73;1732284;82;21043;-68
2021/09/14 01:14:03;;;;;;;10.13;8.55;;;;;;;14.34;81.64;99456.16;1742349;82;21495;-68
2021/09/14 01:16:33;;;;;;;11.80;8.88;;;;;;;14.32;81.70;99455.59;1663249;85;21106;-68
2021/09/14 01:19:01;;;;;;;10.70;8.83;;;;;;;14.31;81.75;99453.96;1726093;82;21011;-67
2021/09/14 01:21:28;;;;;;;;;;;;;;;14.28;81.74;99453.20;1716166;83;21031;-67
2021/09/14 01:23:54;;;;;;;11.43;9.03;;;;;;;14.28;81.78;99463.34;1730566;82;20147;-68
2021/09/14 01:26:21;;;;;;;13.35;9.30;;;;;;;14.22;81.95;99453.05;1737923;82;21055;-67
2021/09/14 01:28:48;;;;;;;14.15;9.15;;;;;;;14.20;81.93;99455.30;1719407;82;20979;-67
2021/09/14 01:31:14;;;;;;;13.80;9.15;;;;;;;14.17;81.90;99462.72;1734032;82;21030;-68
2021/09/14 01:33:51;;;;;;;13.65;9.88;;;;;;;14.15;81.81;99456.74;1724157;81;21031;-67
2021/09/14 01:36:18;;;;;;;10.75;9.08;;;;;;;14.08;81.81;99459.61;1667598;85;21083;-68
2021/09/14 01:38:46;;;;;;;13.60;9.40;;;;;;;13.99;81.98;99458.70;1733070;82;21043;-68
2021/09/14 01:41:12;;;;;;;;;;;;;;;13.92;82.20;99465.93;1648524;85;20997;-68
2021/09/14 01:43:40;;;;;;;11.95;9.55;;;;;;;13.88;82.32;99471.19;1648250;85;20132;-68
2021/09/14 01:46:08;;;;;;;10.60;8.90;;;;;;;13.82;82.64;99468.81;1732911;82;21605;-68
2021/09/14 01:48:35;;;;;;;14.90;9.88;;;;;;;13.81;82.72;99468.03;1716782;82;20976;-67
2021/09/14 01:51:02;;;;;;;13.58;10.32;;;;;;;13.81;82.76;99461.73;1744393;82;21015;-69
2021/09/14 01:53:30;;;;;;;12.30;9.73;;;;;;;13.80;83.02;99466.95;1739273;82;21019;-67
2021/09/14 01:56:02;;;;;;;13.18;9.73;;;;;;;13.78;83.29;99469.18;1739168;82;21083;-70
2021/09/14 01:58:27;;;;;;;13.35;9.70;;;;;;;13.78;83.25;99460.98;1727663;82;21019;-67
2021/09/14 02:01:13;;;;;;;15.08;10.05;;;;;;;13.78;83.24;99461.76;1733444;82;21115;-69
2021/09/14 02:03:53;;;;;;;13.83;9.65;;;;;;;13.77;83.16;99458.79;1718231;82;21533;-68
2021/09/14 02:06:27;;;;;;;14.40;9.65;;;;;;;13.75;83.15;99465.09;1720487;82;21628;-69
2021/09/14 02:44:05;;;;;;;13.60;10.00;;;;;;;13.39;84.41;99486.72;1676627;82;20983;-67
2021/09/14 03:00:09;;;;;;;13.90;9.73;;;;;;;13.31;84.86;99490.69;1718204;83;21039;-68
2021/09/14 03:02:36;;;;;;;11.63;9.10;;;;;;;13.32;84.76;99494.48;1694450;82;21042;-68
2021/09/14 03:05:05;;;;;;;12.13;9.43;;;;;;;13.33;84.70;99495.30;1719370;82;21044;-67
2021/09/14 03:07:33;;;;;;;14.85;9.73;;;;;;;13.30;84.77;99493.16;1727638;82;21015;-67
2021/09/14 03:10:00;;;;;;;14.15;10.20;;;;;;;13.30;84.72;99493.16;1702417;83;21003;-67
2021/09/14 03:12:27;;;;;;;11.28;8.90;;;;;;;13.29;84.62;99500.55;1729177;81;21110;-67
2021/09/14 03:14:54;;;;;;;11.43;9.03;;;;;;;13.27;84.62;99508.23;1721067;82;21007;-67
2021/09/14 03:17:21;;;;;;;12.07;9.35;;;;;;;13.25;84.58;99504.18;1743022;82;21511;-67
2021/09/14 03:19:49;;;;;;;10.75;9.00;;;;;;;13.24;84.53;99510.20;1718492;82;21015;-67
2021/09/14 03:22:15;;;;;;;13.08;9.20;;;;;;;13.21;84.49;99514.07;1724698;82;21142;-67
2021/09/14 03:24:43;;;;;;;11.43;9.75;;;;;;;13.20;84.48;99511.89;1722264;82;21012;-68
2021/09/14 03:27:09;;;;;;;14.80;9.48;;;;;;;13.18;84.57;99512.72;1734983;82;21043;-67
2021/09/14 03:29:35;;;;;;;13.60;9.50;;;;;;;13.19;84.64;99520.37;1732070;82;21006;-69
2021/09/14 03:32:02;;;;;;;15.65;9.70;;;;;;;13.17;84.73;99519.31;1731531;81;21062;-67
2021/09/14 03:34:28;;;;;;;10.88;9.08;;;;;;;13.17;84.75;99519.31;1734463;82;21000;-68
2021/09/14 03:36:54;;;;;;;12.35;9.13;;;;;;;13.12;84.88;99522.65;1738249;82;21059;-68
2021/09/14 03:39:21;;;;;;;10.75;8.83;;;;;;;13.13;84.92;99524.28;1730219;82;21031;-68
2021/09/14 03:41:48;;;;;;;11.38;8.70;;;;;;;13.16;84.77;99522.33;1738537;82;21643;-68
2021/09/14 03:44:15;;;;;;;9.35;7.92;;;;;;;13.19;84.67;99528.02;1719872;82;21463;-68
2021/09/14 03:46:41;;;;;;;12.93;9.35;;;;;;;13.20;84.57;99525.55;1737864;82;21649;-68
2021/09/14 03:49:08;;;;;;;11.25;9.05;;;;;;;13.18;84.54;99530.48;1722745;82;21071;-68
2021/09/14 03:51:37;;;;;;;10.85;8.70;;;;;;;13.12;84.80;99530.30;1675819;85;21068;-68
2021/09/14 03:54:03;;;;;;;15.03;9.30;;;;;;;13.11;84.92;99527.87;1725250;82;21006;-69
2021/09/14 03:56:29;;;;;;;;;;;;;;;13.14;84.82;99529.47;1747728;82;21095;-67
2021/09/14 03:58:56;;;;;;;12.03;8.05;;;;;;;13.15;84.79;99531.62;1743680;82;20107;-68
2021/09/14 04:01:23;;;;;;;12.03;9.28;;;;;;;13.11;84.94;99527.30;1733471;81;21043;-68
2021/09/14 04:04:03;;;;;;;13.38;8.73;;;;;;;13.12;85.02;99530.30;1721175;82;21031;-68
2021/09/14 04:06:52;;;;;;;12.63;9.10;;;;;;;13.14;85.02;99528.11;1731266;82;21016;-68
2021/09/14 04:09:05;;;;;;;12.33;9.15;;;;;;;13.14;85.08;99534.94;1701217;82;21510;-68
2021/09/14 04:11:35;;;;;;;13.22;9.73;;;;;;;13.16;85.14;99534.08;1719900;82;21126;-68
2021/09/14 04:14:02;;;;;;;12.80;9.58;;;;;;;13.20;85.16;99536.48;1727252;82;21509;-68
2021/09/14 04:16:28;;;;;;;14.75;9.53;;;;;;;13.23;85.13;99540.00;1717833;82;20988;-68
2021/09/14 04:18:55;;;;;;;14.47;9.93;;;;;;;13.23;85.05;99549.56;1736400;82;20972;-68
2021/09/14 04:21:22;;;;;;;13.83;9.05;;;;;;;13.25;85.09;99550.65;1731253;82;21019;-68
2021/09/14 04:23:49;;;;;;;11.83;9.33;;;;;;;13.29;85.02;99553.03;1741445;82;21039;-68
2021/09/14 04:26:16;;;;;;;10.28;8.63;;;;;;;13.33;84.96;99552.16;1738741;82;21031;-68
2021/09/14 04:28:43;;;;;;;11.65;8.63;;;;;;;13.34;84.86;99551.06;1739100;82;21486;-67
2021/09/14 04:31:10;;;;;;;11.18;8.85;;;;;;;13.36;84.82;99557.58;1729845;82;21620;-68
2021/09/14 04:33:38;;;;;;;11.75;9.05;;;;;;;13.37;84.76;99560.58;1725110;81;21028;-69
2021/09/14 04:36:05;;;;;;;11.03;8.93;;;;;;;13.37;84.75;99566.05;1722167;80;21035;-69
2021/09/14 04:38:33;;;;;;;12.10;9.05;;;;;;;13.34;84.74;99567.46;1745504;81;20972;-68
2021/09/14 04:41:00;;;;;;;11.22;8.63;;;;;;;13.34;84.80;99576.22;1730265;82;21102;-68
2021/09/14 04:43:26;;;;;;;;;;;;;;;13.33;84.86;99571.84;1732654;82;21046;-67
2021/09/14 04:45:52;;;;;;;10.53;7.78;;;;;;;13.34;84.90;99576.22;1737601;82;20103;-67
2021/09/14 04:48:19;;;;;;;11.83;8.63;;;;;;;13.32;85.16;99578.44;1730576;82;21015;-67
2021/09/14 04:50:46;;;;;;;11.10;8.43;;;;;;;13.37;85.24;99579.17;1720887;82;21169;-67
2021/09/14 04:53:15;;;;;;;12.03;8.68;;;;;;;13.45;85.29;99582.63;1730125;82;20996;-67
2021/09/14 04:55:42;;;;;;;13.03;8.85;;;;;;;13.52;85.26;99581.44;1747031;82;21474;-68
2021/09/14 04:58:09;;;;;;;12.82;9.45;;;;;;;13.57;85.18;99582.75;1739141;82;20992;-71
2021/09/14 05:00:35;;;;;;;12.82;8.40;;;;;;;13.62;85.24;99581.30;1753237;81;21007;-67
2021/09/14 05:03:02;;;;;;;10.38;9.25;;;;;;;13.70;85.22;99587.48;1686556;84;21023;-67
2021/09/14 05:05:30;;;;;;;10.70;8.85;;;;;;;13.78;85.10;99584.88;1735429;82;21019;-68
2021/09/14 05:07:56;;;;;;;12.30;8.70;;;;;;;13.93;85.31;99585.20;1738257;82;20999;-69
2021/09/14 05:10:26;;;;;;;11.28;8.53;;;;;;;14.18;85.34;99586.72;1740295;82;20987;-68
2021/09/14 05:12:52;;;;;;;12.37;8.43;;;;;;;14.44;85.09;99587.96;1732854;82;21023;-67
2021/09/14 05:15:20;;;;;;;13.55;8.80;;;;;;;14.65;84.55;99584.30;1735455;82;21048;-70
2021/09/14 05:17:49;;;;;;;10.28;8.18;;;;;;;14.87;84.18;99588.55;1722369;82;21039;-70
2021/09/14 05:20:20;;;;;;;11.88;7.97;;;;;;;15.08;84.08;99593.06;1722124;82;21007;-70
2021/09/14 05:22:50;;;;;;;9.73;7.72;;;;;;;15.36;83.54;99590.56;1723012;82;21498;-70
2021/09/14 05:25:14;;;;;;;8.63;7.10;;;;;;;;;;1729966;82;20983;-70
2021/09/14 05:27:41;;;;;;;10.15;7.87;;;;;;;15.91;81.76;99585.78;1727523;82;22641;-71
2021/09/14 05:30:08;;;;;;;;;;;;;;;16.13;81.22;99584.98;1743039;82;21513;-69
2021/09/14 05:32:34;;;;;;;8.80;7.65;;;;;;;16.35;80.48;99589.92;1711586;83;20467;-66
2021/09/14 05:35:02;;;;;;;8.63;6.95;;;;;;;16.44;79.75;99588.03;1668733;86;21056;-71
2021/09/14 05:37:29;;;;;;;9.80;7.30;;;;;;;16.62;78.69;99585.41;1709346;82;21064;-70
2021/09/14 05:39:55;;;;;;;7.65;6.78;;;;;;;16.75;77.92;99583.16;1709590;82;21533;-70
2021/09/14 05:42:24;;;;;;;11.15;6.67;;;;;;;16.82;76.71;99587.08;1721813;82;21044;-71
2021/09/14 05:47:15;;;;;;;8.58;7.03;;;;;;;17.11;75.89;99582.40;1858876;76;22436;-71
2021/09/14 05:49:42;;;;;;;9.08;6.22;;;;;;;17.11;75.03;99589.28;1819675;78;21516;-69
2021/09/14 05:52:09;;;;;;;7.90;6.33;;;;;;;17.24;74.30;99589.75;1850952;76;21046;-69
2021/09/14 05:54:36;;;;;;;12.28;6.25;;;;;;;17.40;73.94;99589.53;1798971;79;21014;-69
2021/09/14 05:57:04;;;;;;;8.15;6.80;;;;;;;17.63;73.74;99593.58;1745181;80;21046;-66
2021/09/14 05:59:31;;;;;;;7.75;6.42;;;;;;;17.77;72.23;99592.88;1735739;80;21500;-68
2021/09/14 06:01:57;;;;;;;;;;;;;;;17.83;71.75;99597.89;1788370;79;22045;-67
2021/09/14 06:04:24;;;;;;;7.30;6.05;;;;;;;17.86;71.00;99600.00;1785353;79;20124;-68
2021/09/14 06:06:52;;;;;;;9.00;6.47;;;;;;;17.86;71.18;99601.94;1788371;80;21525;-70
2021/09/14 06:09:20;;;;;;;7.70;6.15;;;;;;;17.88;70.77;99601.88;1791840;79;21536;-69
2021/09/14 06:11:46;;;;;;;;;;;;;;;18.13;71.01;99600.27;1778814;79;21573;-67
2021/09/14 06:14:13;;;;;;;8.48;6.20;;;;;;;18.42;70.37;99603.73;1768300;80;20383;-67
2021/09/14 06:16:40;;;;;;;7.12;5.58;;;;;;;18.49;69.51;99599.09;1777172;80;21556;-68
2021/09/14 06:19:06;;;;;;;8.80;6.47;;;;;;;18.56;68.66;99596.11;1793946;79;21444;-68
2021/09/14 06:21:37;;;;;;;6.65;5.83;;;;;;;18.71;68.91;99596.94;1775306;80;21050;-68
2021/09/14 06:24:06;;;;;;;8.60;6.42;;;;;;;18.98;68.02;99598.49;1758503;80;21050;-68
2021/09/14 06:26:34;;;;;;;7.12;5.78;;;;;;;19.01;66.60;99592.88;1739702;81;21041;-70
2021/09/14 06:29:00;;;;;;;7.58;5.78;;;;;;;19.01;66.77;99592.31;1751587;80;20975;-70
2021/09/14 06:31:27;;;;;;;8.53;6.00;;;;;;;19.15;67.10;99587.38;1761230;80;21008;-68
2021/09/14 06:33:53;;;;;;;6.35;4.85;;;;;;;19.49;66.83;99587.78;1759527;80;20989;-68
2021/09/14 06:36:22;;;;;;;7.67;4.97;;;;;;;19.79;66.26;99588.00;1778701;79;21618;-67
2021/09/14 06:38:49;;;;;;;6.97;5.58;;;;;;;19.95;63.52;99590.95;1763455;79;20978;-68
2021/09/14 06:41:16;;;;;;;8.85;5.58;;;;;;;19.90;64.10;99596.70;1802617;77;21044;-69
2021/09/14 06:43:43;;;;;;;7.08;5.55;;;;;;;20.17;64.69;99596.70;1788450;79;21090;-68
2021/09/14 06:46:12;;;;;;;8.10;5.40;;;;;;;20.51;62.73;99597.00;1813990;77;21035;-68
2021/09/14 06:48:40;;;;;;;6.47;4.95;;;;;;;20.63;62.43;99597.02;1798183;78;21012;-69
2021/09/14 06:51:07;;;;;;;6.90;4.75;;;;;;;20.93;62.28;99597.11;1785946;78;21053;-69
2021/09/14 06:53:33;;;;;;;7.75;4.90;;;;;;;21.24;60.74;99600.73;1764871;80;21409;-68
2021/09/14 06:56:02;;;;;;;7.95;5.15;;;;;;;21.28;59.54;99601.66;1783347;78;21498;-69
2021/09/14 06:58:31;;;;;;;5.72;3.62;;;;;;;21.31;59.69;99593.47;1783870;78;20929;-68
2021/09/14 07:00:58;;;;;;;7.62;3.70;;;;;;;21.65;60.09;99603.81;1806206;77;21230;-69
2021/09/14 07:03:24;;;;;;;5.25;3.60;;;;;;;22.04;58.54;99589.79;1766481;80;21009;-69
2021/09/14 07:05:50;;;;;;;7.25;3.27;;;;;;;22.18;55.84;99596.56;1763168;80;21037;-70
2021/09/14 07:08:17;;;;;;;5.53;3.52;;;;;;;22.10;55.52;99591.98;1753200;80;21456;-69
2021/09/14 07:10:44;;;;;;;5.70;3.52;;;;;;;22.25;55.68;99601.50;1771066;79;21583;-68
2021/09/14 07:13:12;;;;;;;5.00;2.62;;;;;;;22.64;54.56;99594.27;1765593;80;21503;-67
2021/09/14 07:15:39;;;;;;;3.10;2.20;;;;;;;22.68;51.80;99597.41;1771892;79;21546;-68
2021/09/14 07:18:05;;;;;;;4.10;2.50;;;;;;;22.59;52.52;99597.32;1771873;80;21845;-68
2021/09/14 07:20:31;;;;;;;4.67;2.52;;;;;;;22.67;51.72;99598.55;1759902;80;21043;-69
2021/09/14 07:22:58;;;;;;;4.90;2.87;;;;;;;22.73;52.61;99600.51;1760985;80;21025;-70
2021/09/14 07:25:26;;;;;;;3.35;2.30;;;;;;;22.83;51.23;99604.14;1762573;80;20949;-70
2021/09/14 07:27:52;;;;;;;5.25;3.08;;;;;;;22.88;51.30;99603.09;1764137;80;20956;-66
2021/09/14 07:30:19;;;;;;;4.80;2.60;;;;;;;22.99;51.95;99605.56;1751933;81;21041;-66
2021/09/14 07:32:46;;;;;;;5.62;3.20;;;;;;;23.23;51.47;99608.16;1762522;80;21116;-67
2021/09/14 07:35:12;;;;;;;4.83;2.95;;;;;;;23.27;50.25;99603.50;1759976;80;21465;-69
2021/09/14 07:37:38;;;;;;;4.17;2.70;;;;;;;23.25;50.91;99607.20;1789445;78;21597;-67
2021/09/14 07:40:06;;;;;;;5.08;2.52;;;;;;;23.27;50.33;99608.48;1769469;81;20995;-69
2021/09/14 07:42:32;;;;;;;4.78;2.60;;;;;;;23.24;50.84;99603.61;1768173;80;21081;-69
2021/09/14 07:44:59;;;;;;;4.53;2.10;;;;;;;23.37;50.50;99600.75;1770993;79;21028;-68
2021/09/14 07:47:25;;;;;;;3.02;2.10;;;;;;;23.52;48.85;99598.58;1731393;79;21066;-71
2021/09/14 07:49:53;;;;;;;5.97;2.25;;;;;;;23.56;48.33;99593.30;1756472;80;21043;-70
2021/09/14 07:52:19;;;;;;;2.60;1.70;;;;;;;23.67;48.66;99590.19;1756435;80;21058;-71
2021/09/14 07:54:46;;;;;;;4.05;1.75;;;;;;;23.78;48.61;99595.99;1757701;81;21046;-70
2021/09/14 07:57:14;;;;;;;4.15;1.92;;;;;;;23.75;48.18;99593.94;1756036;80;21070;-71
2021/09/14 07:59:40;;;;;;;7.10;2.08;;;;;;;23.81;48.55;99593.09;1758196;80;21046;-73
2021/09/14 08:02:07;;;;;;;3.25;1.72;;;;;;;23.85;47.15;99591.17;1731643;80;21070;-70
2021/09/14 08:04:33;;;;;;;3.30;2.17;;;;;;;23.93;46.84;99598.51;1731215;82;20946;-72
2021/09/14 08:07:01;;;;;;;4.87;2.40;;;;;;;24.12;47.17;99591.00;1742162;81;21041;-71
2021/09/14 08:09:30;;;;;;;3.72;1.75;;;;;;;24.47;45.95;99597.91;1740689;81;21559;-71
2021/09/14 08:11:57;;;;;;;4.85;2.60;;;;;;;24.48;45.42;99593.93;1755848;80;21045;-69
2021/09/14 08:14:24;;;;;;;4.12;2.65;;;;;;;24.30;45.69;99595.58;1752495;81;21021;-72
2021/09/14 08:16:50;;;;;;;4.55;2.60;;;;;;;24.28;46.19;99591.75;1756685;80;21064;-70
2021/09/14 08:19:16;;;;;;;3.87;1.98;;;;;;;24.38;45.07;99592.33;1757681;81;20989;-70
2021/09/14 08:21:43;;;;;;;5.53;2.10;;;;;;;24.20;44.42;99595.55;1755640;80;21531;-70
2021/09/14 08:24:11;;;;;;;4.87;2.33;;;;;;;23.94;45.80;99598.73;1750204;81;21045;-72
2021/09/14 08:26:38;;;;;;;4.50;2.10;;;;;;;24.10;45.64;99598.89;1754042;80;21088;-71
2021/09/14 08:29:04;;;;;;;3.20;1.98;;;;;;;24.32;45.60;99598.78;1755962;81;20978;-71
2021/09/14 08:31:31;;;;;;;3.45;1.75;;;;;;;24.33;44.81;99602.38;1756643;81;21068;-69
2021/09/14 08:33:58;;;;;;;3.45;1.80;;;;;;;24.33;45.57;99602.38;1756534;82;21013;-71
2021/09/14 08:36:24;;;;;;;4.37;2.35;;;;;;;24.43;45.46;99600.39;1757042;81;21077;-72
2021/09/14 08:38:52;;;;;;;2.85;1.70;;;;;;;24.62;45.67;99605.33;1757330;81;20994;-69
2021/09/14 08:41:18;;;;;;;3.45;1.57;;;;;;;24.73;44.23;99602.75;1756582;81;21069;-67
2021/09/14 08:43:48;;;;;;;3.05;1.75;;;;;;;24.67;43.11;99605.05;1756715;81;21014;-70
2021/09/14 08:46:21;;;;;;;3.70;1.60;;;;;;;24.40;42.73;99598.34;1769901;79;21583;-71
2021/09/14 08:48:47;;;;;;;4.22;1.85;;;;;;;24.12;43.75;99608.27;1811809;79;20989;-69
2021/09/14 08:51:14;;;;;;;3.83;1.70;;;;;;;24.03;45.01;99602.91;1781228;79;21038;-69
2021/09/14 08:53:42;;;;;;;3.55;1.80;;;;;;;24.11;43.63;99608.85;1802513;79;21048;-70
2021/09/14 08:56:09;;;;;;;5.45;2.22;;;;;;;23.93;44.89;99601.28;1811732;78;21076;-69
2021/09/14 08:58:37;;;;;;;3.62;1.80;;;;;;;23.86;44.54;99593.60;1811587;79;21025;-70
2021/09/14 09:01:13;;;;;;;3.25;1.80;;;;;;;23.95;45.46;99607.30;1791898;79;21735;-70
2021/09/14 09:03:40;;;;;;;3.08;1.60;;;;;;;24.04;45.06;99593.98;1785413;79;20986;-69
2021/09/14 09:06:08;;;;;;;4.30;2.12;;;;;;;24.04;44.71;99597.58;1770663;80;21552;-70
2021/09/14 09:08:35;;;;;;;4.75;2.52;;;;;;;24.16;45.45;99602.23;1786313;80;20986;-70
2021/09/14 09:11:12;;;;;;;4.53;2.62;;;;;;;24.20;45.39;99598.91;1786729;79;21022;-69
2021/09/14 09:13:49;;;;;;;8.90;2.72;;;;;;;24.34;43.95;99599.82;1788353;80;21473;-69
2021/09/14 09:16:25;;;;;;;6.90;2.50;;;;;;;24.23;43.45;99596.82;1761394;80;21077;-70
2021/09/14 09:19:01;;;;;;;;;;;;;;;23.94;43.07;99597.34;1763153;79;20995;-68
2021/09/14 09:21:35;;;;;;;4.70;2.77;;;;;;;23.58;44.06;99599.33;1805593;78;20086;-69
2021/09/14 09:33:30;;;;;;;4.30;2.50;;;;;;;23.17;47.04;99584.00;1758320;80;21078;-69
2021/09/14 09:36:02;;;;;;;4.70;2.60;;;;;;;23.12;45.09;99587.64;1773575;79;21054;-69
2021/09/14 09:38:30;;;;;;;2.90;2.20;;;;;;;22.80;45.70;99581.27;1774316;80;21599;-69
2021/09/14 09:40:57;;;;;;;3.87;1.95;;;;;;;22.65;47.36;99575.08;1757614;80;21033;-69
2021/09/14 09:43:30;;;;;;;8.33;2.40;;;;;;;22.72;48.23;99580.85;1800507;79;20974;-70
2021/09/14 09:46:10;;;;;;;3.87;2.17;;;;;;;22.76;47.10;99581.76;1770364;79;21069;-70
2021/09/14 09:48:37;;;;;;;4.85;2.25;;;;;;;22.72;46.28;99578.08;1790292;80;21508;-68
2021/09/14 09:51:04;;;;;;;5.15;2.35;;;;;;;22.47;46.55;99584.31;1768031;80;21565;-67
2021/09/14 09:53:33;;;;;;;3.40;1.92;;;;;;;22.39;47.67;99582.48;1771735;80;21017;-68
2021/09/14 09:56:02;;;;;;;5.12;2.10;;;;;;;22.47;46.60;99588.47;1771925;80;21477;-68
2021/09/14 09:58:28;;;;;;;5.47;2.20;;;;;;;22.54;46.90;99582.30;1789929;79;20950;-68
2021/09/14 10:00:59;;;;;;;5.40;2.00;;;;;;;22.58;46.59;99585.41;1790980;79;21044;-68
2021/09/14 10:03:27;;;;;;;7.35;2.35;;;;;;;22.63;45.69;99583.78;1739119;82;21017;-68
2021/09/14 10:05:55;;;;;;;4.40;2.27;;;;;;;22.59;45.82;99584.83;1777516;80;21079;-67
2021/09/14 10:08:23;;;;;;;3.75;2.25;;;;;;;22.58;46.08;99577.66;1787520;80;21537;-69
2021/09/14 10:10:57;;;;;;;3.87;2.30;;;;;;;22.71;46.04;99586.98;1785185;79;21002;-69
2021/09/14 10:13:33;;;;;;;3.85;2.10;;;;;;;22.91;46.69;99592.65;1785108;80;21006;-69
2021/09/14 10:15:59;;;;;;;3.60;1.90;;;;;;;23.00;46.16;99584.37;1798094;78;21583;-67
2021/09/14 10:18:30;;;;;;;5.08;2.00;;;;;;;23.03;45.83;99586.42;1811753;79;21048;-68
2021/09/14 10:20:56;;;;;;;3.65;2.10;;;;;;;23.12;45.65;99582.09;1778133;80;21100;-68
2021/09/14 10:23:34;;;;;;;4.30;2.40;;;;;;;23.46;45.11;99591.66;1774047;81;21017;-68
2021/09/14 10:26:11;;;;;;;5.22;2.45;;;;;;;23.46;45.11;99591.66;1767066;79;21544;-67
2021/09/14 10:28:48;;;;;;;4.35;2.20;;;;;;;23.51;45.08;99590.82;1765130;81;21072;-68
2021/09/14 10:31:26;;;;;;;3.83;2.37;;;;;;;23.51;45.10;99582.48;1773881;79;21046;-69
2021/09/14 10:34:06;;;;;;;4.47;2.17;;;;;;;23.50;44.98;99589.78;1774347;80;20976;-68
2021/09/14 10:36:33;;;;;;;4.10;2.08;;;;;;;23.41;44.50;99598.33;1773492;80;21125;-70
2021/09/14 10:39:01;;;;;;;5.22;2.10;;;;;;;23.28;44.50;99595.38;1784228;80;21480;-69
2021/09/14 10:41:40;;;;;;;4.45;2.47;;;;;;;23.27;44.11;99589.61;1774339;81;21594;-70
2021/09/14 10:44:10;;;;;;;4.03;2.02;;;;;;;23.15;44.91;99594.67;1763943;79;21100;-69
2021/09/14 10:46:37;;;;;;;4.30;2.50;;;;;;;22.99;45.17;99591.68;1753131;81;21612;-69
2021/09/14 10:49:15;;;;;;;4.37;2.17;;;;;;;22.85;46.01;99584.38;1746469;81;21053;-69
2021/09/14 10:51:56;;;;;;;5.08;2.15;;;;;;;22.74;45.31;99589.64;1758397;81;21140;-68
2021/09/14 10:54:24;;;;;;;4.37;2.33;;;;;;;22.62;45.88;99589.67;1764593;81;21057;-70
2021/09/14 10:56:52;;;;;;;6.33;2.25;;;;;;;22.52;45.22;99598.51;1763455;81;21070;-68
2021/09/14 10:59:18;;;;;;;4.78;2.00;;;;;;;22.36;45.82;99597.06;1762904;81;21452;-69
2021/09/14 11:01:47;;;;;;;3.60;2.25;;;;;;;22.20;46.14;99593.45;1769824;80;21460;-66
2021/09/14 11:04:15;;;;;;;4.83;2.30;;;;;;;22.03;46.33;99595.94;1774621;80;21036;-68
2021/09/14 11:06:48;;;;;;;4.12;2.55;;;;;;;21.89;46.88;99596.06;1778001;80;21175;-68
2021/09/14 11:09:14;;;;;;;6.08;2.55;;;;;;;21.87;47.38;99594.20;1780789;80;21483;-68
2021/09/14 11:11:41;;;;;;;3.40;2.22;;;;;;;21.84;47.42;99590.98;1730304;80;21513;-69
2021/09/14 11:14:08;;;;;;;4.62;2.65;;;;;;;21.89;47.51;99581.63;1730978;80;21406;-67
2021/09/14 11:16:36;;;;;;;3.17;2.10;;;;;;;22.01;46.50;99582.18;1779465;80;21096;-68
2021/09/14 11:19:03;;;;;;;5.58;2.12;;;;;;;22.07;46.22;99580.80;1761854;80;20946;-67
2021/09/14 11:21:30;;;;;;;3.25;1.85;;;;;;;22.06;46.71;99591.08;1780271;80;21001;-69
2021/09/14 11:23:58;;;;;;;2.67;1.80;;;;;;;22.01;46.15;99584.38;1780548;80;20942;-70
2021/09/14 11:26:24;;;;;;;3.12;2.08;;;;;;;21.90;46.08;99601.27;1780691;80;21077;-69
2021/09/14 11:28:59;;;;;;;3.65;1.90;;;;;;;21.87;46.37;99591.42;1779911;80;21025;-70
2021/09/14 11:31:31;;;;;;;3.70;2.08;;;;;;;21.95;46.65;99574.70;1780405;80;21041;-69
2021/09/14 11:33:59;;;;;;;3.15;1.82;;;;;;;22.09;46.20;99581.23;1779879;80;20977;-69
2021/09/14 11:36:26;;;;;;;3.62;1.90;;;;;;;22.18;45.55;99584.66;1778573;80;21033;-68
2021/09/14 11:39:05;;;;;;;5.05;2.35;;;;;;;22.18;46.60;99582.70;1780442;80;21065;-67
2021/09/14 11:41:36;;;;;;;5.80;2.37;;;;;;;22.17;46.24;99577.52;1779963;80;22079;-68
2021/09/14 11:44:05;;;;;;;4.42;2.27;;;;;;;22.12;46.13;99581.92;1779620;80;20989;-68
2021/09/14 11:46:32;;;;;;;3.77;2.02;;;;;;;22.01;45.57;99584.38;1779686;80;21501;-69
2021/09/14 11:49:04;;;;;;;3.25;1.85;;;;;;;21.99;44.79;99579.78;1781969;79;21018;-65
2021/09/14 11:51:39;;;;;;;4.87;2.00;;;;;;;21.96;44.28;99576.91;1775209;79;21552;-67
2021/09/14 11:54:12;;;;;;;3.75;2.25;;;;;;;21.89;45.78;99577.47;1783459;79;20970;-66
2021/09/14 11:56:39;;;;;;;5.05;2.62;;;;;;;21.93;45.77;99577.00;1772345;80;21033;-66
2021/09/14 11:59:17;;;;;;;4.58;2.60;;;;;;;21.95;46.25;99576.66;1776447;80;20999;-65
2021/09/14 12:01:45;;;;;;;3.33;2.05;;;;;;;21.98;46.70;99575.38;1795239;79;21588;-68
2021/09/14 12:04:19;;;;;;;3.22;1.72;;;;;;;22.06;46.21;99568.90;1784478;80;21020;-67
2021/09/14 12:06:51;;;;;;;2.45;1.55;;;;;;;22.09;44.93;99578.47;1773316;79;21033;-67
2021/09/14 12:09:19;;;;;;;3.95;1.65;;;;;;;22.04;44.68;99567.61;1767903;80;20975;-68
2021/09/14 12:11:45;;;;;;;4.05;1.50;;;;;;;22.01;45.72;99566.94;1760575;81;21036;-64
2021/09/14 12:14:17;;;;;;;2.70;1.62;;;;;;;22.08;45.29;99567.14;1771988;80;21021;-66
2021/09/14 12:16:51;;;;;;;3.58;1.77;;;;;;;22.14;45.12;99567.92;1763096;80;21026;-66
2021/09/14 12:19:15;;;;;;;3.58;1.40;;;;;;;22.18;44.51;99571.61;1760284;80;20950;-67
2021/09/14 12:21:43;;;;;;;5.35;2.00;;;;;;;22.13;44.52;99566.91;1760360;80;21022;-67
2021/09/14 12:24:10;;;;;;;3.95;1.60;;;;;;;22.15;45.63;99567.34;1762606;80;21020;-66
2021/09/14 12:26:42;;;;;;;2.52;1.45;;;;;;;22.36;45.22;99560.20;1755450;80;21067;-67
2021/09/14 12:29:10;;;;;;;2.15;1.30;;;;;;;22.57;44.10;99560.20;1756356;80;21076;-68
2021/09/14 12:31:38;;;;;;;3.83;1.37;;;;;;;22.65;43.47;99562.02;1726940;81;21117;-66
2021/09/14 12:34:05;;;;;;;2.55;1.47;;;;;;;22.53;43.13;99570.40;1779618;79;21429;-66
2021/09/14 12:36:31;;;;;;;3.15;1.50;;;;;;;22.26;44.07;99572.05;1778398;81;21034;-68
2021/09/14 12:38:58;;;;;;;2.58;1.57;;;;;;;22.07;44.72;99571.09;1788331;80;21539;-66